Terminal Aerodrome Forecast
Issued by NWS

Home | Current Version | Previous Version | Text Only | Print | Product List | Glossary On
Versions: 1 2 3 4 5 6 7 8 9 10 11 12 13 14 15 16 17 18 19 20
000
FTUS43 KFGF 302320
TAFTVF
TAF
KTVF 302320Z 3100/3124 17013G19KT P6SM BKN250
     FM310900 17012KT P6SM BKN250
     FM311500 20013KT P6SM BKN150
     FM312100 23013KT P6SM SCT250
      AMD LTD TO CLD VIS AND WIND=

USA.gov is the U.S. government's official web portal to all federal, state and local government web resources and services.